Main page
METAR-TAF:

METAR-TAF

Airports :

Touat-Cheikh Sidi Mohamed Belkebir Airport

Adrar, Algeria

latitude: 27-53N, longitude: 000-17W, elevation: 263 m

Current weather observation

The report was made 21 minutes ago, at 13:00 UTC
Wind 4 kt from the West/Northwest
Temperature 22°C
Humidity 31%
Pressure 1022 hPa
Visibility 10 km or more
no clouds below 1500 m and no cumulonimbus

METAR: DAUA 241300Z 29004KT CAVOK 22/04 Q1022

Time: 14:21 (13:21 UTC)

Forecast

The report was made 2 hours and 21 minutes ago, at 11:00 UTC
Forecast valid from 24 at 12 UTC to 25 at 12 UTC
Wind 2 kt from variable directions
Visibility 10 km or more
no clouds below 1500 m and no cumulonimbus
Becoming
from 25 at 08 UTC to 25 at 11 UTC
Wind 10 kt from the East/Southeast

TAF: DAUA 241100Z 2412/2512 VRB02KT CAVOK BECMG 2508/2511 12010KT

Weather observations and forecasts of more than 4000 airports (METAR and TAF reports).

The available stations are represented by yellow and red dots on the map.

Hover mouse over dot to see the name of the station.

Then click to see weather observations and forecasts.

To change the map : click on the green buttons with a black cross to zoom in, on the green button with a dash to zoom out, or on the green arrows for adjacent maps.


METAR-TAF: